New Lisbon, WI (53950)

7:05 PM CST on February 10, 2016 (GMT -0600)
KWINEWLI2 | | Change Station
CLOSE
Current Station
Personal Weather Station
Location: New Lisbon, WI
Elevation: 891 ft
Nearby Weather Stations

Elev 891 ft 43.87 °N, 90.17 °W | Updated 138 days ago

Partly Cloudy
Partly Cloudy
6 °F
Feels Like -3 °F
N
5
Wind Variable Wind from NNW
Gusts mph

Today
High -- | Low -- °F
--% Chance of Precip.
Yesterday
High -- | Low -- °F
Precip. -- in
Pressure 30.21 in
Visibility 10.0 miles
Clouds Few 15000 ft
Mostly Cloudy 20000 ft
Windchill -3 °F
Dew Point -2 °F
Humidity 66%
Rainfall in
Snow Depth Not available.
7:07 AM 5:23 PM
Waxing Crescent, 8% visible
METAR KVOK 110058Z 00000KT 10SM FEW150 BKN200 M16/M20 A3012 RMK AO2A SLP229
Pressure 30.21 in
Visibility 10.0 miles
Clouds Few 15000 ft
Mostly Cloudy 20000 ft
Windchill -3 °F
Dew Point -2 °F
Humidity 66%
Rainfall in
Snow Depth Not available.
7:07 AM 5:23 PM
Waxing Crescent, 8% visible
METAR KVOK 110058Z 00000KT 10SM FEW150 BKN200 M16/M20 A3012 RMK AO2A SLP229

10-Day Weather Forecast

Almanac

Astronomy

Feb. 10, 2016 Rise Set
Actual Time
Civil Twilight
Nautical Twilight
Astronomical Twilight
Moon
Length of Visible Light
Length of Day
Tomorrow will be .
, % of the Moon is Illuminated

Today's Extremes

State Highs State Lows

Community

WunderPhotos

Upload Photos

1,891,956 photos uploaded!

WunderBlog® & News

Nearby

Air Quality

  Air Quality AQ Index Pollutant
Not available.

Snow Depth

Station Depth Elevation

Earthquake Activity

City Distance Mag. Time & Date
Minimum magnitude displayed is 2.5.

Coastal Water Temperatures

Place Temperature

Stations

Nearby Weather Stations

Station Location Temp. Windchill Dew Point Humidity Wind Precip. Elev Updated Type
                   

Watches & Warnings

There are currently no watches in effect.